createdAt,value
2022-08-20T00:00:14.032Z,17.56
2022-08-20T00:02:46.401Z,17.54
2022-08-20T00:05:13.241Z,17.52
2022-08-20T00:07:40.789Z,17.51
2022-08-20T00:10:08.404Z,17.52
2022-08-20T00:12:35.197Z,17.53
2022-08-20T00:15:02.276Z,17.50
2022-08-20T00:17:35.534Z,17.48
2022-08-20T00:20:02.071Z,17.49
2022-08-20T00:22:28.503Z,17.50
2022-08-20T00:24:54.980Z,17.46
2022-08-20T00:27:21.457Z,17.45
2022-08-20T00:29:48.282Z,17.41
2022-08-20T00:32:14.679Z,17.38
2022-08-20T00:34:42.432Z,17.35
2022-08-20T00:37:09.267Z,17.32
2022-08-20T00:39:35.839Z,17.29
2022-08-20T00:42:02.447Z,17.25
2022-08-20T00:44:28.899Z,17.21
2022-08-20T00:46:55.380Z,17.20
2022-08-20T00:49:24.905Z,17.19
2022-08-20T00:51:57.784Z,17.20
2022-08-20T00:54:29.750Z,17.19
2022-08-20T00:57:03.493Z,17.18
2022-08-20T00:59:31.668Z,17.15
2022-08-20T01:02:03.231Z,17.13
2022-08-20T01:04:31.420Z,17.11
2022-08-20T01:06:57.869Z,17.03
2022-08-20T01:09:49.403Z,16.96
2022-08-20T01:12:11.297Z,16.89
2022-08-20T01:14:46.841Z,16.86
2022-08-20T01:17:18.168Z,16.76
2022-08-20T01:19:47.562Z,16.74
2022-08-20T01:22:34.094Z,16.74
2022-08-20T01:25:09.993Z,16.68
2022-08-20T01:27:42.625Z,16.66
2022-08-20T01:30:09.694Z,16.61
2022-08-20T01:32:36.181Z,16.61
2022-08-20T01:35:02.652Z,16.60
2022-08-20T01:37:31.372Z,16.55
2022-08-20T01:39:58.632Z,16.53
2022-08-20T01:42:25.101Z,16.51
2022-08-20T01:44:52.686Z,16.48
2022-08-20T01:47:21.154Z,16.42
2022-08-20T01:49:52.626Z,16.39
2022-08-20T01:52:31.183Z,16.35
2022-08-20T01:54:57.753Z,16.30
2022-08-20T01:57:26.807Z,16.26
2022-08-20T01:59:53.580Z,16.22
2022-08-20T02:02:20.287Z,16.20
2022-08-20T02:04:46.857Z,16.16
2022-08-20T02:07:15.327Z,16.13
2022-08-20T02:09:41.778Z,16.10
2022-08-20T02:12:09.080Z,16.06
2022-08-20T02:14:37.027Z,16.04
2022-08-20T02:17:03.564Z,16.00
2022-08-20T02:19:33.841Z,15.98
2022-08-20T02:22:02.390Z,15.96
2022-08-20T02:24:29.989Z,15.93
2022-08-20T02:26:56.514Z,15.89
2022-08-20T02:29:23.778Z,15.85
2022-08-20T02:32:25.100Z,15.82
2022-08-20T02:34:36.854Z,15.83
2022-08-20T02:37:04.943Z,15.85
2022-08-20T02:39:31.664Z,15.86
2022-08-20T02:41:58.098Z,15.89
2022-08-20T02:44:24.535Z,15.88
2022-08-20T02:46:51.106Z,15.88
2022-08-20T02:49:18.119Z,15.91
2022-08-20T02:51:45.229Z,15.92
2022-08-20T02:54:12.232Z,15.93
2022-08-20T02:56:39.357Z,15.95
2022-08-20T02:59:06.605Z,15.97
2022-08-20T03:01:33.105Z,15.95
2022-08-20T03:04:00.203Z,15.98
2022-08-20T03:06:27.435Z,16.00
2022-08-20T03:08:53.939Z,16.03
2022-08-20T03:11:20.704Z,16.04
2022-08-20T03:13:47.465Z,16.02
2022-08-20T03:16:14.289Z,16.01
2022-08-20T03:18:43.089Z,15.97
2022-08-20T03:21:10.734Z,15.94
2022-08-20T03:23:41.315Z,15.93
2022-08-20T03:26:08.733Z,15.91
2022-08-20T03:28:35.474Z,15.87
2022-08-20T03:31:02.003Z,15.84
2022-08-20T03:33:30.172Z,15.81
2022-08-20T03:35:56.715Z,15.78
2022-08-20T03:38:33.134Z,15.74
2022-08-20T03:41:00.983Z,15.70
2022-08-20T03:43:27.532Z,15.68
2022-08-20T03:45:54.084Z,15.67
2022-08-20T03:48:20.962Z,15.60
2022-08-20T03:50:48.209Z,15.55
2022-08-20T03:53:14.922Z,15.53
2022-08-20T03:55:42.940Z,15.55
2022-08-20T03:58:12.562Z,15.55
2022-08-20T04:00:47.150Z,15.56
2022-08-20T04:03:13.611Z,15.56
2022-08-20T04:05:41.069Z,15.58
2022-08-20T04:08:09.170Z,15.56
2022-08-20T04:10:35.937Z,15.55
2022-08-20T04:13:02.536Z,15.52
2022-08-20T04:15:28.958Z,15.52
2022-08-20T04:17:55.562Z,15.52
2022-08-20T04:20:23.951Z,15.48
2022-08-20T04:22:58.966Z,15.46
2022-08-20T04:25:26.236Z,15.45
2022-08-20T04:27:53.499Z,15.44
2022-08-20T04:30:22.412Z,15.42
2022-08-20T04:32:49.854Z,15.40
2022-08-20T04:35:18.137Z,15.37
2022-08-20T04:37:46.343Z,15.34
2022-08-20T04:40:33.795Z,15.33
2022-08-20T04:43:00.288Z,15.34
2022-08-20T04:45:26.746Z,15.34
2022-08-20T04:47:53.931Z,15.37
2022-08-20T04:50:20.793Z,15.37
2022-08-20T04:52:49.885Z,15.39
2022-08-20T04:55:17.320Z,15.41
2022-08-20T04:57:44.253Z,15.44
2022-08-20T05:00:14.224Z,15.46
2022-08-20T05:02:41.814Z,15.52
2022-08-20T05:05:08.854Z,15.55
2022-08-20T05:07:42.994Z,15.63
2022-08-20T05:10:10.689Z,15.68
2022-08-20T05:12:37.286Z,15.70
2022-08-20T05:15:04.613Z,15.76
2022-08-20T05:17:31.075Z,15.83
2022-08-20T05:19:59.507Z,15.92
2022-08-20T05:22:26.875Z,16.00
2022-08-20T05:24:59.268Z,16.04
2022-08-20T05:27:28.731Z,16.08
2022-08-20T05:30:00.291Z,16.14
2022-08-20T05:32:27.079Z,16.23
2022-08-20T05:34:54.722Z,16.32
2022-08-20T05:37:21.164Z,16.43
2022-08-20T05:39:47.643Z,16.54
2022-08-20T05:42:14.076Z,16.62
2022-08-20T05:44:40.602Z,16.71
2022-08-20T05:47:07.094Z,16.80
2022-08-20T05:49:34.903Z,16.93
2022-08-20T05:52:01.377Z,17.08
2022-08-20T05:54:27.830Z,17.19
2022-08-20T05:56:54.433Z,17.32
2022-08-20T05:59:24.218Z,17.44
2022-08-20T06:01:51.311Z,17.54
2022-08-20T06:04:28.573Z,17.65
2022-08-20T06:07:03.684Z,17.81
2022-08-20T06:09:31.606Z,17.92
2022-08-20T06:12:00.382Z,18.01
2022-08-20T06:14:26.824Z,18.12
2022-08-20T06:16:57.804Z,18.20
2022-08-20T06:19:26.381Z,18.31
2022-08-20T06:21:53.284Z,18.39
2022-08-20T06:24:20.363Z,18.46
2022-08-20T06:26:46.845Z,18.54
2022-08-20T06:29:13.271Z,18.67
2022-08-20T06:31:40.313Z,18.80
2022-08-20T06:34:07.442Z,18.89
2022-08-20T06:36:34.537Z,18.98
2022-08-20T06:39:00.963Z,19.08
2022-08-20T06:41:36.074Z,19.16
2022-08-20T06:44:03.773Z,19.23
2022-08-20T06:46:30.220Z,19.34
2022-08-20T06:48:56.857Z,19.38
2022-08-20T06:51:23.391Z,19.43
2022-08-20T06:53:49.826Z,19.49
2022-08-20T06:56:16.667Z,19.47
2022-08-20T06:58:43.944Z,19.53
2022-08-20T07:01:11.782Z,19.59
2022-08-20T07:03:42.110Z,19.60
2022-08-20T07:06:21.879Z,19.70
2022-08-20T07:08:48.442Z,19.66
2022-08-20T07:11:14.906Z,19.77
2022-08-20T07:13:42.031Z,19.88
2022-08-20T07:16:08.994Z,19.95
2022-08-20T07:18:35.707Z,19.96
2022-08-20T07:21:02.157Z,19.84
2022-08-20T07:23:28.614Z,19.88
2022-08-20T07:25:57.914Z,19.96
2022-08-20T07:28:25.579Z,19.88
2022-08-20T07:31:13.565Z,19.88
2022-08-20T07:33:41.285Z,19.86
2022-08-20T07:36:08.562Z,19.87
2022-08-20T07:38:35.259Z,19.91
2022-08-20T07:41:02.815Z,20.01
2022-08-20T07:43:31.040Z,20.04
2022-08-20T07:46:00.758Z,20.08
2022-08-20T07:48:32.047Z,20.04
2022-08-20T07:51:00.012Z,20.04
2022-08-20T07:53:26.875Z,19.99
2022-08-20T07:55:59.203Z,19.97
2022-08-20T07:58:33.096Z,20.07
2022-08-20T08:00:59.838Z,20.20
2022-08-20T08:03:39.341Z,20.25
2022-08-20T08:06:14.539Z,20.32
2022-08-20T08:08:43.724Z,20.35
2022-08-20T08:11:11.211Z,20.37
2022-08-20T08:13:40.466Z,20.42
2022-08-20T08:16:08.139Z,20.46
2022-08-20T08:18:40.422Z,20.52
2022-08-20T08:21:07.813Z,20.56
2022-08-20T08:23:34.937Z,20.60
2022-08-20T08:26:02.108Z,20.65
2022-08-20T08:28:29.714Z,20.69
2022-08-20T08:30:56.331Z,20.66
2022-08-20T08:33:33.585Z,20.75
2022-08-20T08:36:01.828Z,20.82
2022-08-20T08:38:28.593Z,20.80
2022-08-20T08:41:00.061Z,20.89
2022-08-20T08:43:27.882Z,20.84
2022-08-20T08:46:03.781Z,20.88
2022-08-20T08:48:32.484Z,20.93
2022-08-20T08:50:59.581Z,20.96
2022-08-20T08:53:28.222Z,21.00
2022-08-20T08:55:54.793Z,21.10
2022-08-20T08:58:21.334Z,21.16
2022-08-20T09:00:56.008Z,21.14
2022-08-20T09:03:29.443Z,21.18
2022-08-20T09:05:59.786Z,21.46
2022-08-20T09:08:29.673Z,21.41
2022-08-20T09:11:00.809Z,21.32
2022-08-20T09:13:27.286Z,21.35
2022-08-20T09:15:53.716Z,21.60
2022-08-20T09:18:20.165Z,21.73
2022-08-20T09:20:46.593Z,21.86
2022-08-20T09:23:13.029Z,21.95
2022-08-20T09:25:39.449Z,21.98
2022-08-20T09:28:05.922Z,22.05
2022-08-20T09:30:32.456Z,22.01
2022-08-20T09:33:00.164Z,21.92
2022-08-20T09:35:27.224Z,21.72
2022-08-20T09:37:53.772Z,21.70
2022-08-20T09:40:21.391Z,21.76
2022-08-20T09:42:48.527Z,22.00
2022-08-20T09:45:15.639Z,21.92
2022-08-20T09:47:57.048Z,21.94
2022-08-20T09:50:25.164Z,21.92
2022-08-20T09:52:52.877Z,21.97
2022-08-20T09:55:24.653Z,21.82
2022-08-20T09:57:51.684Z,22.00
2022-08-20T10:00:18.439Z,22.06
2022-08-20T10:02:44.983Z,22.09
2022-08-20T10:05:11.708Z,22.42
2022-08-20T10:07:39.414Z,22.45
2022-08-20T10:10:07.003Z,22.36
2022-08-20T10:12:33.540Z,22.61
2022-08-20T10:15:00.102Z,22.61
2022-08-20T10:17:26.558Z,22.67
2022-08-20T10:19:53.229Z,22.41
2022-08-20T10:22:19.713Z,22.66
2022-08-20T10:24:46.253Z,22.63
2022-08-20T10:27:12.670Z,22.76
2022-08-20T10:29:39.184Z,22.65
2022-08-20T10:32:14.887Z,23.08
2022-08-20T10:34:42.295Z,23.01
2022-08-20T10:37:09.492Z,23.18
2022-08-20T10:39:36.235Z,22.95
2022-08-20T10:42:02.843Z,22.97
2022-08-20T10:44:30.429Z,23.07
2022-08-20T10:46:57.033Z,23.60
2022-08-20T10:49:23.794Z,23.63
2022-08-20T10:51:50.208Z,23.84
2022-08-20T10:54:16.660Z,23.63
2022-08-20T10:56:43.137Z,23.99
2022-08-20T10:59:09.678Z,24.02
2022-08-20T11:01:36.967Z,24.26
2022-08-20T11:04:03.863Z,23.95
2022-08-20T11:06:30.325Z,23.90
2022-08-20T11:08:57.211Z,23.89
2022-08-20T11:11:23.954Z,23.96
2022-08-20T11:13:50.369Z,24.08
2022-08-20T11:16:16.850Z,24.21
2022-08-20T11:18:46.897Z,24.17
2022-08-20T11:21:14.516Z,24.20
2022-08-20T11:23:40.989Z,24.53
2022-08-20T11:26:07.473Z,24.70
2022-08-20T11:28:34.216Z,24.94
2022-08-20T11:31:01.518Z,25.06
2022-08-20T11:33:28.291Z,25.07
2022-08-20T11:35:54.699Z,25.19
2022-08-20T11:38:21.178Z,25.03
2022-08-20T11:40:47.696Z,25.52
2022-08-20T11:43:16.213Z,25.98
2022-08-20T11:45:44.460Z,26.25
2022-08-20T11:48:10.877Z,26.44
2022-08-20T11:50:37.410Z,26.58
2022-08-20T11:53:03.849Z,26.80
2022-08-20T11:55:31.090Z,26.81
2022-08-20T11:58:00.338Z,27.20
2022-08-20T12:00:31.778Z,27.22
2022-08-20T12:03:00.100Z,27.74
2022-08-20T12:05:27.443Z,28.04
2022-08-20T12:07:54.028Z,28.30
2022-08-20T12:10:20.532Z,28.41
2022-08-20T12:12:46.972Z,28.16
2022-08-20T12:15:13.448Z,27.81
2022-08-20T12:17:39.888Z,28.19
2022-08-20T12:20:12.123Z,28.52
2022-08-20T12:22:39.102Z,28.45
2022-08-20T12:25:06.533Z,28.19
2022-08-20T12:27:33.939Z,28.51
2022-08-20T12:30:02.047Z,28.44
2022-08-20T12:32:29.736Z,29.05
2022-08-20T12:34:57.005Z,28.88
2022-08-20T12:37:25.498Z,28.20
2022-08-20T12:39:53.144Z,28.50
2022-08-20T12:42:20.726Z,28.98
2022-08-20T12:44:47.344Z,29.28
2022-08-20T12:47:15.094Z,29.34
2022-08-20T12:49:43.050Z,29.17
2022-08-20T12:52:09.618Z,28.63
2022-08-20T12:54:36.122Z,29.14
2022-08-20T12:57:02.611Z,29.51
2022-08-20T12:59:34.484Z,29.82
2022-08-20T13:02:11.494Z,29.20
2022-08-20T13:04:40.759Z,29.10
2022-08-20T13:07:07.386Z,29.25
2022-08-20T13:09:38.257Z,29.29
2022-08-20T13:12:07.539Z,28.87
2022-08-20T13:14:34.503Z,28.43
2022-08-20T13:17:01.312Z,28.64
2022-08-20T13:19:28.836Z,29.45
2022-08-20T13:21:55.441Z,30.00
2022-08-20T13:24:21.902Z,29.71
2022-08-20T13:26:48.817Z,28.88
2022-08-20T13:29:16.074Z,28.73
2022-08-20T13:31:42.926Z,28.37
2022-08-20T13:34:09.744Z,28.39
2022-08-20T13:36:36.259Z,28.56
2022-08-20T13:39:04.957Z,28.43
2022-08-20T13:41:31.500Z,28.44
2022-08-20T13:43:57.938Z,28.01
2022-08-20T13:46:24.422Z,28.12
2022-08-20T13:48:50.855Z,27.89
2022-08-20T13:51:18.163Z,27.80
2022-08-20T13:53:45.975Z,27.53
2022-08-20T13:56:13.338Z,27.57
2022-08-20T13:58:39.826Z,27.28
2022-08-20T14:01:06.439Z,27.11
2022-08-20T14:03:34.827Z,27.25
2022-08-20T14:06:02.296Z,26.95
2022-08-20T14:08:28.861Z,26.62
2022-08-20T14:10:55.613Z,26.53
2022-08-20T14:13:23.467Z,25.80
2022-08-20T14:15:49.946Z,25.54
2022-08-20T14:18:16.495Z,25.18
2022-08-20T14:20:45.346Z,25.17
2022-08-20T14:23:12.235Z,25.45
2022-08-20T14:25:38.704Z,25.55
2022-08-20T14:28:12.920Z,25.58
2022-08-20T14:30:39.965Z,25.54
2022-08-20T14:33:06.748Z,25.36
2022-08-20T14:35:33.252Z,25.53
2022-08-20T14:38:01.128Z,25.52
2022-08-20T14:40:28.298Z,25.89
2022-08-20T14:42:55.822Z,25.76
2022-08-20T14:45:22.876Z,25.32
2022-08-20T14:47:54.177Z,25.33
2022-08-20T14:50:22.736Z,25.33
2022-08-20T14:52:49.299Z,25.25
2022-08-20T14:55:17.804Z,25.28
2022-08-20T14:57:44.471Z,25.19
2022-08-20T15:00:12.903Z,25.01
2022-08-20T15:02:39.873Z,24.96
2022-08-20T15:05:07.307Z,24.83
2022-08-20T15:07:36.879Z,24.83
2022-08-20T15:10:06.517Z,24.83
2022-08-20T15:12:35.250Z,25.03
2022-08-20T15:15:13.325Z,25.05
2022-08-20T15:17:50.389Z,24.69
2022-08-20T15:20:20.937Z,24.59
2022-08-20T15:22:48.411Z,24.52
2022-08-20T15:25:16.756Z,24.43
2022-08-20T15:27:44.230Z,24.37
2022-08-20T15:30:15.952Z,24.35
2022-08-20T15:32:42.375Z,24.08
2022-08-20T15:35:11.304Z,24.00
2022-08-20T15:37:46.142Z,23.92
2022-08-20T15:40:16.030Z,23.88
2022-08-20T15:42:43.495Z,23.83
2022-08-20T15:45:13.806Z,23.80
2022-08-20T15:47:54.711Z,23.70
2022-08-20T15:50:34.855Z,23.61
2022-08-20T15:53:05.333Z,23.62
2022-08-20T15:55:31.849Z,23.52
2022-08-20T15:58:17.530Z,23.53
2022-08-20T16:00:57.009Z,23.60
2022-08-20T16:04:00.561Z,23.58
2022-08-20T16:06:30.886Z,23.58
2022-08-20T16:09:03.554Z,23.59
2022-08-20T16:11:42.937Z,23.61
2022-08-20T16:14:09.341Z,23.56
2022-08-20T16:16:39.517Z,23.54
2022-08-20T16:19:07.439Z,23.39
2022-08-20T16:21:36.913Z,23.31
2022-08-20T16:24:05.796Z,23.18
2022-08-20T16:26:47.986Z,23.03
2022-08-20T16:29:19.902Z,23.07
2022-08-20T16:31:48.361Z,23.01
2022-08-20T16:34:33.952Z,23.11
2022-08-20T16:37:10.381Z,23.18
2022-08-20T16:39:50.849Z,23.16
2022-08-20T16:42:20.902Z,23.21
2022-08-20T16:44:49.339Z,23.31
2022-08-20T16:47:21.658Z,23.20
2022-08-20T16:50:08.329Z,23.39
2022-08-20T16:52:34.766Z,23.38
2022-08-20T16:55:01.204Z,23.42
2022-08-20T16:57:28.155Z,23.30
2022-08-20T16:59:56.108Z,23.24
2022-08-20T17:02:22.708Z,23.32
2022-08-20T17:04:59.404Z,23.39
2022-08-20T17:07:40.553Z,23.30
2022-08-20T17:10:30.037Z,23.30
2022-08-20T17:13:19.791Z,23.29
2022-08-20T17:15:54.025Z,23.21
2022-08-20T17:18:24.365Z,23.14
2022-08-20T17:20:50.825Z,22.97
2022-08-20T17:23:19.171Z,22.88
2022-08-20T17:25:54.540Z,22.73
2022-08-20T17:28:23.050Z,22.74
2022-08-20T17:30:49.692Z,22.74
2022-08-20T17:33:24.362Z,22.66
2022-08-20T17:35:55.380Z,22.64
2022-08-20T17:38:37.050Z,22.59
2022-08-20T17:41:08.108Z,22.56
2022-08-20T17:43:34.853Z,22.41
2022-08-20T17:46:18.942Z,22.38
2022-08-20T17:48:46.767Z,22.29
2022-08-20T17:51:18.696Z,22.26
2022-08-20T17:53:49.876Z,22.26
2022-08-20T17:56:19.738Z,22.17
2022-08-20T17:58:54.862Z,22.09
2022-08-20T18:01:22.371Z,21.98
2022-08-20T18:03:49.947Z,21.87
2022-08-20T18:06:19.182Z,21.79
2022-08-20T18:08:48.687Z,21.78
2022-08-20T18:11:24.666Z,21.65
2022-08-20T18:13:54.119Z,21.61
2022-08-20T18:16:25.750Z,21.53
2022-08-20T18:19:02.583Z,21.39
2022-08-20T18:21:32.315Z,21.41
2022-08-20T18:24:05.095Z,21.39
2022-08-20T18:26:41.968Z,21.37
2022-08-20T18:29:13.715Z,21.31
2022-08-20T18:31:40.112Z,21.24
2022-08-20T18:34:11.211Z,21.20
2022-08-20T18:36:37.674Z,21.13
2022-08-20T18:39:04.484Z,21.06
2022-08-20T18:41:33.055Z,20.97
2022-08-20T18:44:10.609Z,20.91
2022-08-20T18:46:38.887Z,20.86
2022-08-20T18:49:06.678Z,20.79
2022-08-20T18:51:41.652Z,20.71
2022-08-20T18:54:08.979Z,20.65
2022-08-20T18:56:37.432Z,20.58
2022-08-20T18:59:03.858Z,20.50
2022-08-20T19:01:34.972Z,20.51
2022-08-20T19:04:01.968Z,20.48
2022-08-20T19:06:31.614Z,20.39
2022-08-20T19:09:01.138Z,20.31
2022-08-20T19:11:53.744Z,20.23
2022-08-20T19:14:27.470Z,20.12
2022-08-20T19:17:04.333Z,20.07
2022-08-20T19:19:32.997Z,20.00
2022-08-20T19:22:00.592Z,19.93
2022-08-20T19:24:28.432Z,19.84
2022-08-20T19:26:57.266Z,19.81
2022-08-20T19:29:29.508Z,19.73
2022-08-20T19:32:00.263Z,19.68
2022-08-20T19:34:26.941Z,19.61
2022-08-20T19:36:55.426Z,19.54
2022-08-20T19:39:24.688Z,19.47
2022-08-20T19:41:55.512Z,19.40
2022-08-20T19:44:32.985Z,19.33
2022-08-20T19:47:00.819Z,19.26
2022-08-20T19:49:37.098Z,19.22
2022-08-20T19:52:09.577Z,19.16
2022-08-20T19:54:43.388Z,19.09
2022-08-20T19:57:10.601Z,19.02
2022-08-20T19:59:37.065Z,18.96
2022-08-20T20:02:20.658Z,18.90
2022-08-20T20:04:55.298Z,18.87
2022-08-20T20:07:26.877Z,18.83
2022-08-20T20:09:55.472Z,18.77
2022-08-20T20:12:23.195Z,18.72
2022-08-20T20:14:51.405Z,18.69
2022-08-20T20:17:23.302Z,18.64
2022-08-20T20:20:00.690Z,18.51
2022-08-20T20:22:29.349Z,18.44
2022-08-20T20:24:58.962Z,18.43
2022-08-20T20:27:26.627Z,18.40
2022-08-20T20:30:04.542Z,18.36
2022-08-20T20:32:33.649Z,18.35
2022-08-20T20:35:02.009Z,18.31
2022-08-20T20:37:50.732Z,18.25
2022-08-20T20:40:33.336Z,18.21
2022-08-20T20:43:02.532Z,18.21
2022-08-20T20:45:32.051Z,18.20
2022-08-20T20:47:58.656Z,18.18
2022-08-20T20:50:27.337Z,18.16
2022-08-20T20:52:56.818Z,18.15
2022-08-20T20:55:25.337Z,18.16
2022-08-20T20:57:51.829Z,18.14
2022-08-20T21:00:19.811Z,18.12
2022-08-20T21:02:46.840Z,18.09
2022-08-20T21:05:14.628Z,18.11
2022-08-20T21:07:56.101Z,18.13
2022-08-20T21:10:24.685Z,18.17
2022-08-20T21:12:53.075Z,18.18
2022-08-20T21:15:20.350Z,18.18
2022-08-20T21:17:46.928Z,18.20
2022-08-20T21:20:13.607Z,18.23
2022-08-20T21:22:40.819Z,18.24
2022-08-20T21:25:07.497Z,18.24
2022-08-20T21:27:34.348Z,18.26
2022-08-20T21:30:03.636Z,18.25
2022-08-20T21:32:30.255Z,18.26
2022-08-20T21:34:56.876Z,18.28
2022-08-20T21:37:26.077Z,18.27
2022-08-20T21:39:55.580Z,18.27
2022-08-20T21:42:28.496Z,18.25
2022-08-20T21:44:56.128Z,18.24
2022-08-20T21:47:22.850Z,18.21
2022-08-20T21:49:49.310Z,18.21
2022-08-20T21:52:18.569Z,18.21
2022-08-20T21:54:45.034Z,18.23
2022-08-20T21:57:21.413Z,18.23
2022-08-20T21:59:48.808Z,18.22
2022-08-20T22:02:18.720Z,18.21
2022-08-20T22:04:45.375Z,18.22
2022-08-20T22:07:15.310Z,18.21
2022-08-20T22:09:41.787Z,18.18
2022-08-20T22:12:16.685Z,18.17
2022-08-20T22:14:43.175Z,18.12
2022-08-20T22:17:09.621Z,18.08
2022-08-20T22:19:36.035Z,18.04
2022-08-20T22:22:02.609Z,18.00
2022-08-20T22:24:29.468Z,17.98
2022-08-20T22:26:56.320Z,17.91
2022-08-20T22:29:22.861Z,17.86
2022-08-20T22:31:49.541Z,17.83
2022-08-20T22:34:18.751Z,17.76
2022-08-20T22:36:45.468Z,17.69
2022-08-20T22:39:11.957Z,17.63
2022-08-20T22:41:38.978Z,17.59
2022-08-20T22:44:05.994Z,17.55
2022-08-20T22:46:35.290Z,17.49
2022-08-20T22:49:02.609Z,17.46
2022-08-20T22:51:30.461Z,17.41
2022-08-20T22:53:57.157Z,17.35
2022-08-20T22:56:23.618Z,17.28
2022-08-20T22:58:50.458Z,17.21
2022-08-20T23:01:18.463Z,17.17
2022-08-20T23:03:45.038Z,17.08
2022-08-20T23:06:12.475Z,17.05
2022-08-20T23:08:39.226Z,17.02
2022-08-20T23:11:06.413Z,16.99
2022-08-20T23:13:32.884Z,16.96
2022-08-20T23:15:59.652Z,16.92
2022-08-20T23:18:26.090Z,16.97
2022-08-20T23:20:54.248Z,16.90
2022-08-20T23:23:21.146Z,16.84
2022-08-20T23:25:47.702Z,16.76
2022-08-20T23:28:16.377Z,16.73
2022-08-20T23:30:42.817Z,16.69
2022-08-20T23:33:09.241Z,16.64
2022-08-20T23:35:37.360Z,16.61
2022-08-20T23:38:03.816Z,16.56
2022-08-20T23:40:30.277Z,16.53
2022-08-20T23:42:57.076Z,16.49
2022-08-20T23:45:24.138Z,16.47
2022-08-20T23:47:50.815Z,16.42
2022-08-20T23:50:18.783Z,16.40
2022-08-20T23:52:45.242Z,16.36
2022-08-20T23:55:12.028Z,16.33
2022-08-20T23:57:39.295Z,16.28
